sensor_id;sensor_type;location;lat;lon;timestamp;P1;durP1;ratioP1;P2;durP2;ratioP2
6564;SDS011;3316;44.118;27.258;2023-07-13T00:00:38;14.68;;;9.65;;
6564;SDS011;3316;44.118;27.258;2023-07-13T00:03:04;14.00;;;8.95;;
6564;SDS011;3316;44.118;27.258;2023-07-13T00:05:29;12.38;;;9.10;;
6564;SDS011;3316;44.118;27.258;2023-07-13T00:07:55;12.25;;;9.23;;
6564;SDS011;3316;44.118;27.258;2023-07-13T00:10:21;13.15;;;8.50;;
6564;SDS011;3316;44.118;27.258;2023-07-13T00:12:47;11.50;;;8.70;;
6564;SDS011;3316;44.118;27.258;2023-07-13T00:15:17;11.20;;;8.90;;
6564;SDS011;3316;44.118;27.258;2023-07-13T00:17:51;22.73;;;10.15;;
6564;SDS011;3316;44.118;27.258;2023-07-13T00:20:18;14.68;;;9.50;;
6564;SDS011;3316;44.118;27.258;2023-07-13T00:22:46;14.38;;;9.88;;
6564;SDS011;3316;44.118;27.258;2023-07-13T00:25:13;13.10;;;10.00;;
6564;SDS011;3316;44.118;27.258;2023-07-13T00:27:39;11.07;;;9.48;;
6564;SDS011;3316;44.118;27.258;2023-07-13T00:30:04;13.35;;;9.30;;
6564;SDS011;3316;44.118;27.258;2023-07-13T00:32:30;14.50;;;9.80;;
6564;SDS011;3316;44.118;27.258;2023-07-13T00:34:56;21.45;;;10.85;;
6564;SDS011;3316;44.118;27.258;2023-07-13T00:37:22;12.15;;;9.63;;
6564;SDS011;3316;44.118;27.258;2023-07-13T00:39:48;18.48;;;9.80;;
6564;SDS011;3316;44.118;27.258;2023-07-13T00:42:14;14.00;;;10.32;;
6564;SDS011;3316;44.118;27.258;2023-07-13T00:44:40;15.32;;;10.48;;
6564;SDS011;3316;44.118;27.258;2023-07-13T00:47:05;11.93;;;10.45;;
6564;SDS011;3316;44.118;27.258;2023-07-13T00:49:32;15.63;;;9.75;;
6564;SDS011;3316;44.118;27.258;2023-07-13T00:52:09;12.52;;;9.80;;
6564;SDS011;3316;44.118;27.258;2023-07-13T00:54:39;13.93;;;10.32;;
6564;SDS011;3316;44.118;27.258;2023-07-13T00:57:08;13.50;;;9.45;;
6564;SDS011;3316;44.118;27.258;2023-07-13T00:59:38;15.35;;;10.35;;
6564;SDS011;3316;44.118;27.258;2023-07-13T01:02:07;16.63;;;9.15;;
6564;SDS011;3316;44.118;27.258;2023-07-13T01:04:33;11.75;;;10.15;;
6564;SDS011;3316;44.118;27.258;2023-07-13T01:06:58;14.45;;;9.70;;
6564;SDS011;3316;44.118;27.258;2023-07-13T01:09:26;16.92;;;10.20;;
6564;SDS011;3316;44.118;27.258;2023-07-13T01:11:52;12.60;;;10.07;;
6564;SDS011;3316;44.118;27.258;2023-07-13T01:14:18;15.43;;;10.73;;
6564;SDS011;3316;44.118;27.258;2023-07-13T01:16:44;11.85;;;10.50;;
6564;SDS011;3316;44.118;27.258;2023-07-13T01:22:03;16.92;;;10.23;;
6564;SDS011;3316;44.118;27.258;2023-07-13T01:24:35;16.10;;;11.05;;
6564;SDS011;3316;44.118;27.258;2023-07-13T01:27:01;20.83;;;11.05;;
6564;SDS011;3316;44.118;27.258;2023-07-13T01:29:28;16.48;;;10.68;;
6564;SDS011;3316;44.118;27.258;2023-07-13T01:31:53;15.43;;;9.65;;
6564;SDS011;3316;44.118;27.258;2023-07-13T01:34:19;16.67;;;9.82;;
6564;SDS011;3316;44.118;27.258;2023-07-13T01:36:44;13.77;;;10.13;;
6564;SDS011;3316;44.118;27.258;2023-07-13T01:39:10;17.73;;;10.30;;
6564;SDS011;3316;44.118;27.258;2023-07-13T01:41:35;12.00;;;10.00;;
6564;SDS011;3316;44.118;27.258;2023-07-13T01:44:00;13.63;;;10.23;;
6564;SDS011;3316;44.118;27.258;2023-07-13T01:46:26;16.05;;;10.15;;
6564;SDS011;3316;44.118;27.258;2023-07-13T01:48:51;14.63;;;10.35;;
6564;SDS011;3316;44.118;27.258;2023-07-13T01:51:17;17.35;;;10.80;;
6564;SDS011;3316;44.118;27.258;2023-07-13T01:53:43;15.60;;;10.98;;
6564;SDS011;3316;44.118;27.258;2023-07-13T01:56:08;23.70;;;10.73;;
6564;SDS011;3316;44.118;27.258;2023-07-13T01:58:34;17.50;;;10.70;;
6564;SDS011;3316;44.118;27.258;2023-07-13T02:00:59;19.35;;;11.05;;
6564;SDS011;3316;44.118;27.258;2023-07-13T02:03:25;14.25;;;11.30;;
6564;SDS011;3316;44.118;27.258;2023-07-13T02:05:50;16.65;;;10.73;;
6564;SDS011;3316;44.118;27.258;2023-07-13T02:08:15;17.42;;;11.48;;
6564;SDS011;3316;44.118;27.258;2023-07-13T02:10:41;19.25;;;11.85;;
6564;SDS011;3316;44.118;27.258;2023-07-13T02:13:06;19.80;;;12.18;;
6564;SDS011;3316;44.118;27.258;2023-07-13T02:15:32;15.95;;;10.65;;
6564;SDS011;3316;44.118;27.258;2023-07-13T02:17:58;17.52;;;11.43;;
6564;SDS011;3316;44.118;27.258;2023-07-13T02:20:24;14.68;;;10.98;;
6564;SDS011;3316;44.118;27.258;2023-07-13T02:22:51;25.02;;;12.13;;
6564;SDS011;3316;44.118;27.258;2023-07-13T02:25:16;16.67;;;12.15;;
6564;SDS011;3316;44.118;27.258;2023-07-13T02:27:42;19.70;;;11.55;;
6564;SDS011;3316;44.118;27.258;2023-07-13T02:30:07;18.95;;;11.23;;
6564;SDS011;3316;44.118;27.258;2023-07-13T02:32:33;14.80;;;11.65;;
6564;SDS011;3316;44.118;27.258;2023-07-13T02:35:00;24.48;;;11.90;;
6564;SDS011;3316;44.118;27.258;2023-07-13T02:37:26;13.90;;;11.00;;
6564;SDS011;3316;44.118;27.258;2023-07-13T02:39:51;12.82;;;11.35;;
6564;SDS011;3316;44.118;27.258;2023-07-13T02:42:16;17.45;;;11.32;;
6564;SDS011;3316;44.118;27.258;2023-07-13T02:44:42;18.35;;;12.13;;
6564;SDS011;3316;44.118;27.258;2023-07-13T02:47:07;18.02;;;11.80;;
6564;SDS011;3316;44.118;27.258;2023-07-13T02:49:33;19.98;;;12.30;;
6564;SDS011;3316;44.118;27.258;2023-07-13T02:51:58;16.25;;;12.18;;
6564;SDS011;3316;44.118;27.258;2023-07-13T02:54:24;15.20;;;12.50;;
6564;SDS011;3316;44.118;27.258;2023-07-13T02:56:50;16.08;;;12.00;;
6564;SDS011;3316;44.118;27.258;2023-07-13T02:59:15;16.75;;;12.50;;
6564;SDS011;3316;44.118;27.258;2023-07-13T03:01:41;16.58;;;12.82;;
6564;SDS011;3316;44.118;27.258;2023-07-13T03:04:06;16.08;;;12.00;;
6564;SDS011;3316;44.118;27.258;2023-07-13T03:06:32;16.88;;;11.63;;
6564;SDS011;3316;44.118;27.258;2023-07-13T03:08:58;21.17;;;12.27;;
6564;SDS011;3316;44.118;27.258;2023-07-13T03:11:25;20.02;;;11.82;;
6564;SDS011;3316;44.118;27.258;2023-07-13T03:13:51;17.92;;;13.02;;
6564;SDS011;3316;44.118;27.258;2023-07-13T03:16:17;21.92;;;11.88;;
6564;SDS011;3316;44.118;27.258;2023-07-13T03:18:43;17.13;;;11.95;;
6564;SDS011;3316;44.118;27.258;2023-07-13T03:21:09;21.10;;;12.50;;
6564;SDS011;3316;44.118;27.258;2023-07-13T03:23:34;15.70;;;11.77;;
6564;SDS011;3316;44.118;27.258;2023-07-13T03:26:04;18.65;;;12.27;;
6564;SDS011;3316;44.118;27.258;2023-07-13T03:28:31;17.60;;;12.65;;
6564;SDS011;3316;44.118;27.258;2023-07-13T03:33:55;18.60;;;11.70;;
6564;SDS011;3316;44.118;27.258;2023-07-13T03:36:23;20.83;;;12.05;;
6564;SDS011;3316;44.118;27.258;2023-07-13T03:38:52;18.75;;;12.15;;
6564;SDS011;3316;44.118;27.258;2023-07-13T03:41:20;18.65;;;12.43;;
6564;SDS011;3316;44.118;27.258;2023-07-13T03:43:47;19.75;;;12.57;;
6564;SDS011;3316;44.118;27.258;2023-07-13T03:46:13;19.88;;;12.73;;
6564;SDS011;3316;44.118;27.258;2023-07-13T03:48:40;16.08;;;12.30;;
6564;SDS011;3316;44.118;27.258;2023-07-13T03:51:08;19.15;;;12.30;;
6564;SDS011;3316;44.118;27.258;2023-07-13T03:53:37;16.08;;;11.80;;
6564;SDS011;3316;44.118;27.258;2023-07-13T03:56:04;16.15;;;12.38;;
6564;SDS011;3316;44.118;27.258;2023-07-13T03:58:39;18.65;;;12.88;;
6564;SDS011;3316;44.118;27.258;2023-07-13T04:01:06;27.80;;;13.07;;
6564;SDS011;3316;44.118;27.258;2023-07-13T04:03:33;16.80;;;12.18;;
6564;SDS011;3316;44.118;27.258;2023-07-13T04:06:00;18.02;;;12.55;;
6564;SDS011;3316;44.118;27.258;2023-07-13T04:08:27;16.13;;;12.23;;
6564;SDS011;3316;44.118;27.258;2023-07-13T04:10:54;19.90;;;12.50;;
6564;SDS011;3316;44.118;27.258;2023-07-13T04:13:20;20.25;;;11.98;;
6564;SDS011;3316;44.118;27.258;2023-07-13T04:15:45;24.70;;;13.27;;
6564;SDS011;3316;44.118;27.258;2023-07-13T04:18:11;20.80;;;12.45;;
6564;SDS011;3316;44.118;27.258;2023-07-13T04:20:36;18.77;;;14.18;;
6564;SDS011;3316;44.118;27.258;2023-07-13T04:23:02;24.77;;;16.00;;
6564;SDS011;3316;44.118;27.258;2023-07-13T04:25:27;32.67;;;20.23;;
6564;SDS011;3316;44.118;27.258;2023-07-13T04:27:53;45.95;;;22.85;;
6564;SDS011;3316;44.118;27.258;2023-07-13T04:30:19;28.10;;;17.20;;
6564;SDS011;3316;44.118;27.258;2023-07-13T04:32:45;49.30;;;25.38;;
6564;SDS011;3316;44.118;27.258;2023-07-13T04:35:11;32.17;;;20.05;;
6564;SDS011;3316;44.118;27.258;2023-07-13T04:37:37;22.08;;;14.13;;
6564;SDS011;3316;44.118;27.258;2023-07-13T04:40:02;28.35;;;14.18;;
6564;SDS011;3316;44.118;27.258;2023-07-13T04:42:28;22.23;;;15.73;;
6564;SDS011;3316;44.118;27.258;2023-07-13T04:44:54;26.23;;;15.55;;
6564;SDS011;3316;44.118;27.258;2023-07-13T04:47:20;23.10;;;14.77;;
6564;SDS011;3316;44.118;27.258;2023-07-13T04:49:45;18.85;;;12.90;;
6564;SDS011;3316;44.118;27.258;2023-07-13T04:52:11;28.13;;;15.88;;
6564;SDS011;3316;44.118;27.258;2023-07-13T04:54:37;22.17;;;13.50;;
6564;SDS011;3316;44.118;27.258;2023-07-13T04:57:03;21.90;;;13.23;;
6564;SDS011;3316;44.118;27.258;2023-07-13T04:59:31;22.00;;;13.00;;
6564;SDS011;3316;44.118;27.258;2023-07-13T05:01:57;23.30;;;13.63;;
6564;SDS011;3316;44.118;27.258;2023-07-13T05:04:23;29.45;;;17.90;;
6564;SDS011;3316;44.118;27.258;2023-07-13T05:06:49;35.47;;;22.70;;
6564;SDS011;3316;44.118;27.258;2023-07-13T05:09:14;27.77;;;16.35;;
6564;SDS011;3316;44.118;27.258;2023-07-13T05:11:59;20.16;;;14.02;;
6564;SDS011;3316;44.118;27.258;2023-07-13T05:14:24;21.90;;;14.70;;
6564;SDS011;3316;44.118;27.258;2023-07-13T05:16:49;21.75;;;15.65;;
6564;SDS011;3316;44.118;27.258;2023-07-13T05:19:15;27.50;;;17.83;;
6564;SDS011;3316;44.118;27.258;2023-07-13T05:21:40;22.48;;;13.65;;
6564;SDS011;3316;44.118;27.258;2023-07-13T05:24:06;23.67;;;14.88;;
6564;SDS011;3316;44.118;27.258;2023-07-13T05:26:32;22.83;;;14.98;;
6564;SDS011;3316;44.118;27.258;2023-07-13T05:28:57;24.45;;;14.82;;
6564;SDS011;3316;44.118;27.258;2023-07-13T05:31:22;22.38;;;13.68;;
6564;SDS011;3316;44.118;27.258;2023-07-13T05:33:48;19.52;;;14.27;;
6564;SDS011;3316;44.118;27.258;2023-07-13T05:36:13;21.65;;;13.05;;
6564;SDS011;3316;44.118;27.258;2023-07-13T05:38:39;18.27;;;13.43;;
6564;SDS011;3316;44.118;27.258;2023-07-13T05:41:05;19.55;;;15.30;;
6564;SDS011;3316;44.118;27.258;2023-07-13T05:43:30;29.05;;;15.48;;
6564;SDS011;3316;44.118;27.258;2023-07-13T05:45:56;28.70;;;15.27;;
6564;SDS011;3316;44.118;27.258;2023-07-13T05:48:22;31.55;;;20.23;;
6564;SDS011;3316;44.118;27.258;2023-07-13T05:50:48;33.70;;;20.48;;
6564;SDS011;3316;44.118;27.258;2023-07-13T05:53:14;32.70;;;15.20;;
6564;SDS011;3316;44.118;27.258;2023-07-13T05:55:43;22.90;;;14.73;;
6564;SDS011;3316;44.118;27.258;2023-07-13T05:58:12;26.20;;;15.95;;
6564;SDS011;3316;44.118;27.258;2023-07-13T06:00:38;33.50;;;14.45;;
6564;SDS011;3316;44.118;27.258;2023-07-13T06:03:04;31.02;;;18.08;;
6564;SDS011;3316;44.118;27.258;2023-07-13T06:05:29;20.55;;;13.82;;
6564;SDS011;3316;44.118;27.258;2023-07-13T06:07:55;20.92;;;14.07;;
6564;SDS011;3316;44.118;27.258;2023-07-13T06:10:20;18.80;;;14.63;;
6564;SDS011;3316;44.118;27.258;2023-07-13T06:12:46;21.08;;;14.73;;
6564;SDS011;3316;44.118;27.258;2023-07-13T06:15:11;20.52;;;13.95;;
6564;SDS011;3316;44.118;27.258;2023-07-13T06:17:37;19.65;;;13.57;;
6564;SDS011;3316;44.118;27.258;2023-07-13T06:20:03;26.05;;;13.75;;
6564;SDS011;3316;44.118;27.258;2023-07-13T06:22:28;22.58;;;15.82;;
6564;SDS011;3316;44.118;27.258;2023-07-13T06:24:54;16.00;;;13.40;;
6564;SDS011;3316;44.118;27.258;2023-07-13T06:27:19;16.58;;;12.55;;
6564;SDS011;3316;44.118;27.258;2023-07-13T06:29:45;19.65;;;12.07;;
6564;SDS011;3316;44.118;27.258;2023-07-13T06:32:11;17.90;;;12.45;;
6564;SDS011;3316;44.118;27.258;2023-07-13T06:34:36;21.02;;;13.70;;
6564;SDS011;3316;44.118;27.258;2023-07-13T06:37:02;18.85;;;11.57;;
6564;SDS011;3316;44.118;27.258;2023-07-13T06:39:27;25.60;;;16.20;;
6564;SDS011;3316;44.118;27.258;2023-07-13T06:41:53;22.35;;;15.10;;
6564;SDS011;3316;44.118;27.258;2023-07-13T06:44:18;23.27;;;15.15;;
6564;SDS011;3316;44.118;27.258;2023-07-13T06:46:43;18.05;;;13.50;;
6564;SDS011;3316;44.118;27.258;2023-07-13T06:49:09;16.30;;;12.77;;
6564;SDS011;3316;44.118;27.258;2023-07-13T06:51:34;16.75;;;13.55;;
6564;SDS011;3316;44.118;27.258;2023-07-13T06:54:00;20.75;;;13.65;;
6564;SDS011;3316;44.118;27.258;2023-07-13T06:56:25;27.20;;;17.67;;
6564;SDS011;3316;44.118;27.258;2023-07-13T06:58:51;25.77;;;17.88;;
6564;SDS011;3316;44.118;27.258;2023-07-13T07:01:16;20.83;;;16.02;;
6564;SDS011;3316;44.118;27.258;2023-07-13T07:03:42;17.70;;;13.27;;
6564;SDS011;3316;44.118;27.258;2023-07-13T07:06:13;20.33;;;13.45;;
6564;SDS011;3316;44.118;27.258;2023-07-13T07:08:43;17.95;;;12.75;;
6564;SDS011;3316;44.118;27.258;2023-07-13T07:11:14;18.85;;;14.23;;
6564;SDS011;3316;44.118;27.258;2023-07-13T07:13:42;21.63;;;13.48;;
6564;SDS011;3316;44.118;27.258;2023-07-13T07:16:07;18.50;;;13.00;;
6564;SDS011;3316;44.118;27.258;2023-07-13T07:18:33;18.90;;;14.35;;
6564;SDS011;3316;44.118;27.258;2023-07-13T07:20:59;26.42;;;17.20;;
6564;SDS011;3316;44.118;27.258;2023-07-13T07:23:25;30.65;;;18.85;;
6564;SDS011;3316;44.118;27.258;2023-07-13T07:25:50;16.65;;;13.20;;
6564;SDS011;3316;44.118;27.258;2023-07-13T07:28:17;18.55;;;14.82;;
6564;SDS011;3316;44.118;27.258;2023-07-13T07:30:43;19.85;;;16.08;;
6564;SDS011;3316;44.118;27.258;2023-07-13T07:33:09;26.85;;;17.20;;
6564;SDS011;3316;44.118;27.258;2023-07-13T07:35:35;28.50;;;19.92;;
6564;SDS011;3316;44.118;27.258;2023-07-13T07:38:00;22.27;;;15.48;;
6564;SDS011;3316;44.118;27.258;2023-07-13T07:40:26;20.77;;;14.98;;
6564;SDS011;3316;44.118;27.258;2023-07-13T07:42:51;17.35;;;14.02;;
6564;SDS011;3316;44.118;27.258;2023-07-13T07:45:18;19.80;;;13.40;;
6564;SDS011;3316;44.118;27.258;2023-07-13T07:47:44;15.07;;;12.25;;
6564;SDS011;3316;44.118;27.258;2023-07-13T07:50:09;16.77;;;12.88;;
6564;SDS011;3316;44.118;27.258;2023-07-13T07:52:35;14.30;;;12.38;;
6564;SDS011;3316;44.118;27.258;2023-07-13T07:55:01;19.60;;;12.43;;
6564;SDS011;3316;44.118;27.258;2023-07-13T07:57:26;21.05;;;12.98;;
6564;SDS011;3316;44.118;27.258;2023-07-13T07:59:52;18.75;;;12.90;;
6564;SDS011;3316;44.118;27.258;2023-07-13T08:02:17;15.70;;;12.68;;
6564;SDS011;3316;44.118;27.258;2023-07-13T08:04:43;17.95;;;12.18;;
6564;SDS011;3316;44.118;27.258;2023-07-13T08:07:08;19.02;;;13.45;;
6564;SDS011;3316;44.118;27.258;2023-07-13T08:09:34;19.88;;;12.77;;
6564;SDS011;3316;44.118;27.258;2023-07-13T08:11:59;21.55;;;13.45;;
6564;SDS011;3316;44.118;27.258;2023-07-13T08:14:25;18.00;;;13.23;;
6564;SDS011;3316;44.118;27.258;2023-07-13T08:16:50;26.40;;;14.35;;
6564;SDS011;3316;44.118;27.258;2023-07-13T08:19:16;20.45;;;13.35;;
6564;SDS011;3316;44.118;27.258;2023-07-13T08:21:41;20.40;;;13.82;;
6564;SDS011;3316;44.118;27.258;2023-07-13T08:24:08;16.88;;;11.30;;
6564;SDS011;3316;44.118;27.258;2023-07-13T08:26:34;17.20;;;11.15;;
6564;SDS011;3316;44.118;27.258;2023-07-13T08:28:59;17.60;;;11.43;;
6564;SDS011;3316;44.118;27.258;2023-07-13T08:31:25;15.68;;;10.90;;
6564;SDS011;3316;44.118;27.258;2023-07-13T08:33:50;22.52;;;12.93;;
6564;SDS011;3316;44.118;27.258;2023-07-13T08:36:16;17.67;;;10.48;;
6564;SDS011;3316;44.118;27.258;2023-07-13T08:38:41;14.57;;;10.75;;
6564;SDS011;3316;44.118;27.258;2023-07-13T08:41:14;15.50;;;10.77;;
6564;SDS011;3316;44.118;27.258;2023-07-13T08:43:45;16.48;;;11.15;;
6564;SDS011;3316;44.118;27.258;2023-07-13T08:48:50;14.60;;;10.98;;
6564;SDS011;3316;44.118;27.258;2023-07-13T08:51:36;19.35;;;11.13;;
6564;SDS011;3316;44.118;27.258;2023-07-13T08:54:07;14.43;;;11.75;;
6564;SDS011;3316;44.118;27.258;2023-07-13T08:56:42;17.55;;;10.55;;
6564;SDS011;3316;44.118;27.258;2023-07-13T08:59:11;15.90;;;11.80;;
6564;SDS011;3316;44.118;27.258;2023-07-13T09:04:28;17.02;;;10.07;;
6564;SDS011;3316;44.118;27.258;2023-07-13T09:07:02;21.17;;;10.93;;
6564;SDS011;3316;44.118;27.258;2023-07-13T09:17:56;18.35;;;12.48;;
6564;SDS011;3316;44.118;27.258;2023-07-13T09:20:27;14.15;;;11.18;;
6564;SDS011;3316;44.118;27.258;2023-07-13T09:22:59;15.80;;;10.80;;
6564;SDS011;3316;44.118;27.258;2023-07-13T09:27:59;17.48;;;11.00;;
6564;SDS011;3316;44.118;27.258;2023-07-13T09:33:12;13.15;;;10.32;;
6564;SDS011;3316;44.118;27.258;2023-07-13T09:35:39;14.02;;;10.38;;
6564;SDS011;3316;44.118;27.258;2023-07-13T09:38:14;16.48;;;11.30;;
6564;SDS011;3316;44.118;27.258;2023-07-13T09:43:14;17.00;;;10.48;;
6564;SDS011;3316;44.118;27.258;2023-07-13T09:45:41;15.93;;;10.50;;
6564;SDS011;3316;44.118;27.258;2023-07-13T09:48:12;11.70;;;9.65;;
6564;SDS011;3316;44.118;27.258;2023-07-13T09:50:40;13.95;;;10.23;;
6564;SDS011;3316;44.118;27.258;2023-07-13T09:53:14;19.48;;;10.20;;
6564;SDS011;3316;44.118;27.258;2023-07-13T09:55:44;13.55;;;10.52;;
6564;SDS011;3316;44.118;27.258;2023-07-13T09:58:13;17.15;;;11.18;;
6564;SDS011;3316;44.118;27.258;2023-07-13T10:00:54;17.90;;;9.57;;
6564;SDS011;3316;44.118;27.258;2023-07-13T10:03:31;12.15;;;9.50;;
6564;SDS011;3316;44.118;27.258;2023-07-13T10:06:19;19.48;;;10.45;;
6564;SDS011;3316;44.118;27.258;2023-07-13T10:08:47;16.17;;;10.57;;
6564;SDS011;3316;44.118;27.258;2023-07-13T10:11:21;15.25;;;10.60;;
6564;SDS011;3316;44.118;27.258;2023-07-13T10:16:21;18.55;;;9.65;;
6564;SDS011;3316;44.118;27.258;2023-07-13T10:18:50;17.25;;;9.73;;
6564;SDS011;3316;44.118;27.258;2023-07-13T10:21:22;13.85;;;9.43;;
6564;SDS011;3316;44.118;27.258;2023-07-13T10:26:45;16.65;;;9.43;;
6564;SDS011;3316;44.118;27.258;2023-07-13T10:29:17;18.30;;;10.63;;
6564;SDS011;3316;44.118;27.258;2023-07-13T10:31:45;14.52;;;10.75;;
6564;SDS011;3316;44.118;27.258;2023-07-13T10:34:11;21.02;;;12.35;;
6564;SDS011;3316;44.118;27.258;2023-07-13T10:36:45;15.45;;;10.38;;
6564;SDS011;3316;44.118;27.258;2023-07-13T10:39:23;16.75;;;10.05;;
6564;SDS011;3316;44.118;27.258;2023-07-13T10:41:55;18.40;;;11.65;;
6564;SDS011;3316;44.118;27.258;2023-07-13T10:44:30;18.08;;;10.60;;
6564;SDS011;3316;44.118;27.258;2023-07-13T10:46:58;16.52;;;11.10;;
6564;SDS011;3316;44.118;27.258;2023-07-13T10:49:27;17.67;;;10.25;;
6564;SDS011;3316;44.118;27.258;2023-07-13T10:51:56;16.23;;;10.00;;
6564;SDS011;3316;44.118;27.258;2023-07-13T10:54:30;16.67;;;10.35;;
6564;SDS011;3316;44.118;27.258;2023-07-13T10:59:46;14.48;;;9.73;;
6564;SDS011;3316;44.118;27.258;2023-07-13T11:02:33;20.38;;;12.68;;
6564;SDS011;3316;44.118;27.258;2023-07-13T11:04:59;28.95;;;13.23;;
6564;SDS011;3316;44.118;27.258;2023-07-13T11:11:02;13.82;;;9.15;;
6564;SDS011;3316;44.118;27.258;2023-07-13T11:18:52;12.80;;;8.32;;
6564;SDS011;3316;44.118;27.258;2023-07-13T11:21:27;22.52;;;11.60;;
6564;SDS011;3316;44.118;27.258;2023-07-13T11:24:15;29.20;;;15.65;;
6564;SDS011;3316;44.118;27.258;2023-07-13T11:31:42;27.15;;;15.68;;
6564;SDS011;3316;44.118;27.258;2023-07-13T11:34:16;16.20;;;10.98;;
6564;SDS011;3316;44.118;27.258;2023-07-13T11:36:46;14.00;;;8.75;;
6564;SDS011;3316;44.118;27.258;2023-07-13T11:41:53;10.82;;;7.07;;
6564;SDS011;3316;44.118;27.258;2023-07-13T11:44:41;17.38;;;7.13;;
6564;SDS011;3316;44.118;27.258;2023-07-13T11:47:19;14.45;;;7.53;;
6564;SDS011;3316;44.118;27.258;2023-07-13T11:49:50;13.98;;;7.15;;
6564;SDS011;3316;44.118;27.258;2023-07-13T11:52:28;13.07;;;8.48;;
6564;SDS011;3316;44.118;27.258;2023-07-13T11:54:59;12.90;;;7.35;;
6564;SDS011;3316;44.118;27.258;2023-07-13T11:57:28;15.38;;;7.88;;
6564;SDS011;3316;44.118;27.258;2023-07-13T11:59:56;16.98;;;7.53;;
6564;SDS011;3316;44.118;27.258;2023-07-13T12:02:34;12.98;;;7.28;;
6564;SDS011;3316;44.118;27.258;2023-07-13T12:05:03;11.57;;;6.90;;
6564;SDS011;3316;44.118;27.258;2023-07-13T12:07:31;11.73;;;7.13;;
6564;SDS011;3316;44.118;27.258;2023-07-13T12:10:44;14.15;;;7.35;;
6564;SDS011;3316;44.118;27.258;2023-07-13T12:13:04;13.45;;;8.10;;
6564;SDS011;3316;44.118;27.258;2023-07-13T12:16:07;12.82;;;7.30;;
6564;SDS011;3316;44.118;27.258;2023-07-13T12:18:22;15.25;;;7.50;;
6564;SDS011;3316;44.118;27.258;2023-07-13T12:20:54;16.27;;;7.82;;
6564;SDS011;3316;44.118;27.258;2023-07-13T12:23:30;12.93;;;7.30;;
6564;SDS011;3316;44.118;27.258;2023-07-13T12:25:58;16.92;;;7.57;;
6564;SDS011;3316;44.118;27.258;2023-07-13T12:28:36;9.07;;;7.00;;
6564;SDS011;3316;44.118;27.258;2023-07-13T12:31:05;16.15;;;6.82;;
6564;SDS011;3316;44.118;27.258;2023-07-13T12:33:32;13.88;;;7.13;;
6564;SDS011;3316;44.118;27.258;2023-07-13T12:36:02;13.48;;;6.45;;
6564;SDS011;3316;44.118;27.258;2023-07-13T12:38:31;11.55;;;6.28;;
6564;SDS011;3316;44.118;27.258;2023-07-13T12:40:57;12.05;;;6.20;;
6564;SDS011;3316;44.118;27.258;2023-07-13T12:43:23;15.38;;;6.32;;
6564;SDS011;3316;44.118;27.258;2023-07-13T12:48:21;18.83;;;6.68;;
6564;SDS011;3316;44.118;27.258;2023-07-13T12:50:47;10.13;;;6.60;;
6564;SDS011;3316;44.118;27.258;2023-07-13T12:53:17;13.25;;;7.00;;
6564;SDS011;3316;44.118;27.258;2023-07-13T12:55:49;17.50;;;7.32;;
6564;SDS011;3316;44.118;27.258;2023-07-13T12:58:20;10.27;;;6.32;;
6564;SDS011;3316;44.118;27.258;2023-07-13T13:00:57;11.15;;;5.40;;
6564;SDS011;3316;44.118;27.258;2023-07-13T13:03:35;14.50;;;5.57;;
6564;SDS011;3316;44.118;27.258;2023-07-13T13:06:17;10.98;;;6.50;;
6564;SDS011;3316;44.118;27.258;2023-07-13T13:08:55;8.63;;;5.00;;
6564;SDS011;3316;44.118;27.258;2023-07-13T13:11:23;15.00;;;5.70;;
6564;SDS011;3316;44.118;27.258;2023-07-13T13:13:51;12.40;;;5.60;;
6564;SDS011;3316;44.118;27.258;2023-07-13T13:18:50;11.95;;;6.15;;
6564;SDS011;3316;44.118;27.258;2023-07-13T13:21:16;11.13;;;6.50;;
6564;SDS011;3316;44.118;27.258;2023-07-13T13:23:43;14.70;;;7.20;;
6564;SDS011;3316;44.118;27.258;2023-07-13T13:26:13;14.68;;;8.05;;
6564;SDS011;3316;44.118;27.258;2023-07-13T13:28:43;15.85;;;7.88;;
6564;SDS011;3316;44.118;27.258;2023-07-13T13:31:09;10.55;;;7.35;;
6564;SDS011;3316;44.118;27.258;2023-07-13T13:33:40;13.60;;;8.20;;
6564;SDS011;3316;44.118;27.258;2023-07-13T13:36:16;14.07;;;8.20;;
6564;SDS011;3316;44.118;27.258;2023-07-13T13:38:47;19.48;;;11.13;;
6564;SDS011;3316;44.118;27.258;2023-07-13T13:41:14;13.65;;;7.88;;
6564;SDS011;3316;44.118;27.258;2023-07-13T13:43:40;18.52;;;8.57;;
6564;SDS011;3316;44.118;27.258;2023-07-13T13:46:15;13.82;;;7.03;;
6564;SDS011;3316;44.118;27.258;2023-07-13T13:48:43;14.38;;;8.23;;
6564;SDS011;3316;44.118;27.258;2023-07-13T13:51:22;12.32;;;8.20;;
6564;SDS011;3316;44.118;27.258;2023-07-13T13:53:49;17.10;;;8.02;;
6564;SDS011;3316;44.118;27.258;2023-07-13T13:56:15;13.75;;;7.65;;
6564;SDS011;3316;44.118;27.258;2023-07-13T13:58:43;10.90;;;7.70;;
6564;SDS011;3316;44.118;27.258;2023-07-13T14:01:12;13.05;;;7.03;;
6564;SDS011;3316;44.118;27.258;2023-07-13T14:03:41;20.13;;;9.82;;
6564;SDS011;3316;44.118;27.258;2023-07-13T14:06:09;15.85;;;8.23;;
6564;SDS011;3316;44.118;27.258;2023-07-13T14:08:37;23.80;;;9.85;;
6564;SDS011;3316;44.118;27.258;2023-07-13T14:11:03;12.75;;;7.53;;
6564;SDS011;3316;44.118;27.258;2023-07-13T14:13:32;14.55;;;9.07;;
6564;SDS011;3316;44.118;27.258;2023-07-13T14:16:12;18.30;;;9.32;;
6564;SDS011;3316;44.118;27.258;2023-07-13T14:18:42;13.77;;;7.65;;
6564;SDS011;3316;44.118;27.258;2023-07-13T14:21:16;19.05;;;8.98;;
6564;SDS011;3316;44.118;27.258;2023-07-13T14:23:43;15.88;;;8.10;;
6564;SDS011;3316;44.118;27.258;2023-07-13T14:26:11;17.15;;;7.78;;
6564;SDS011;3316;44.118;27.258;2023-07-13T14:28:38;15.43;;;8.45;;
6564;SDS011;3316;44.118;27.258;2023-07-13T14:31:08;14.85;;;8.30;;
6564;SDS011;3316;44.118;27.258;2023-07-13T14:33:34;17.52;;;8.25;;
6564;SDS011;3316;44.118;27.258;2023-07-13T14:35:59;13.90;;;7.82;;
6564;SDS011;3316;44.118;27.258;2023-07-13T14:38:25;16.38;;;7.60;;
6564;SDS011;3316;44.118;27.258;2023-07-13T14:40:50;16.75;;;8.77;;
6564;SDS011;3316;44.118;27.258;2023-07-13T14:43:16;32.90;;;18.52;;
6564;SDS011;3316;44.118;27.258;2023-07-13T14:45:43;25.33;;;13.07;;
6564;SDS011;3316;44.118;27.258;2023-07-13T14:48:19;32.30;;;15.15;;
6564;SDS011;3316;44.118;27.258;2023-07-13T14:50:49;16.60;;;10.00;;
6564;SDS011;3316;44.118;27.258;2023-07-13T14:53:18;17.67;;;8.82;;
6564;SDS011;3316;44.118;27.258;2023-07-13T14:55:44;27.48;;;14.80;;
6564;SDS011;3316;44.118;27.258;2023-07-13T14:58:09;22.67;;;10.90;;
6564;SDS011;3316;44.118;27.258;2023-07-13T15:00:35;20.10;;;8.93;;
6564;SDS011;3316;44.118;27.258;2023-07-13T15:03:02;19.50;;;9.68;;
6564;SDS011;3316;44.118;27.258;2023-07-13T15:05:30;18.10;;;8.70;;
6564;SDS011;3316;44.118;27.258;2023-07-13T15:07:57;17.70;;;8.82;;
6564;SDS011;3316;44.118;27.258;2023-07-13T15:10:26;15.60;;;8.60;;
6564;SDS011;3316;44.118;27.258;2023-07-13T15:13:01;15.85;;;8.20;;
6564;SDS011;3316;44.118;27.258;2023-07-13T15:15:40;16.60;;;8.48;;
6564;SDS011;3316;44.118;27.258;2023-07-13T15:18:09;23.08;;;10.10;;
6564;SDS011;3316;44.118;27.258;2023-07-13T15:20:37;19.20;;;8.35;;
6564;SDS011;3316;44.118;27.258;2023-07-13T15:23:02;15.05;;;7.97;;
6564;SDS011;3316;44.118;27.258;2023-07-13T15:25:28;19.95;;;9.50;;
6564;SDS011;3316;44.118;27.258;2023-07-13T15:27:55;17.48;;;8.43;;
6564;SDS011;3316;44.118;27.258;2023-07-13T15:30:22;17.13;;;8.70;;
6564;SDS011;3316;44.118;27.258;2023-07-13T15:32:52;19.17;;;8.77;;
6564;SDS011;3316;44.118;27.258;2023-07-13T15:35:21;15.00;;;8.15;;
6564;SDS011;3316;44.118;27.258;2023-07-13T15:37:50;14.98;;;7.78;;
6564;SDS011;3316;44.118;27.258;2023-07-13T15:40:16;14.18;;;8.70;;